Time;durP1;ratioP1;P1;durP2;ratioP2;P2;SDS_P1;SDS_P2;PMS_P1;PMS_P2;Temp;Humidity;BMP_temperature;BMP_pressure;BME280_temperature;BME280_humidity;BME280_pressure;Samples;Min_cycle;Max_cycle;Signal;HPM_P1;HPM_P2
2023/09/19 00:01:08;;;;;;;13.45;13.05;;;;;;;-141.02;100.00;38413.81;5112320;28;20200;-58
2023/09/19 00:03:37;;;;;;;13.45;13.05;;;;;;;-141.02;100.00;38385.06;5112399;28;20320;-57
2023/09/19 00:06:07;;;;;;;13.40;13.00;;;;;;;-141.02;100.00;38362.06;5112528;28;20197;-57
2023/09/19 00:08:34;;;;;;;13.35;12.95;;;;;;;-141.02;100.00;38388.91;5113101;28;20232;-57
2023/09/19 00:11:05;;;;;;;13.57;13.18;;;;;;;-141.02;100.00;38346.72;5119411;27;20200;-58
2023/09/19 00:13:33;;;;;;;13.40;13.00;;;;;;;-141.02;100.00;38342.88;5119397;27;20651;-57
2023/09/19 00:16:01;;;;;;;13.45;13.05;;;;;;;-141.02;100.00;38329.47;5119408;27;20201;-57
2023/09/19 00:18:32;;;;;;;13.70;13.30;;;;;;;-141.02;100.00;38323.72;5119046;27;20199;-57
2023/09/19 00:20:59;;;;;;;13.40;13.00;;;;;;;-141.02;100.00;38312.22;5119399;27;20195;-57
2023/09/19 00:23:31;;;;;;;13.40;13.00;;;;;;;-141.02;100.00;38310.28;5119039;27;20197;-57
2023/09/19 00:26:00;;;;;;;12.98;12.57;;;;;;;-141.02;100.00;38285.38;5119373;27;20193;-57
2023/09/19 00:28:27;;;;;;;13.27;12.88;;;;;;;-141.02;100.00;38248.94;5119151;27;20255;-57
2023/09/19 00:30:55;;;;;;;12.93;12.52;;;;;;;-141.02;100.00;38256.63;5118980;27;20274;-57
2023/09/19 00:33:24;;;;;;;13.05;12.65;;;;;;;-141.02;100.00;38243.19;5118899;27;20669;-57
2023/09/19 00:35:51;;;;;;;13.40;13.00;;;;;;;-141.02;100.00;38231.69;5119239;27;20196;-57
2023/09/19 00:38:21;;;;;;;12.82;12.43;;;;;;;-141.02;100.00;38224.03;5118861;27;20283;-58
2023/09/19 00:40:51;;;;;;;12.63;12.23;;;;;;;-141.02;100.00;38189.53;5118828;27;20208;-58
2023/09/19 00:43:18;;;;;;;12.20;11.80;;;;;;;-141.02;100.00;38218.28;5118850;27;20197;-57
2023/09/19 00:45:51;;;;;;;12.10;11.70;;;;;;;-141.02;100.00;38202.94;5118967;27;20679;-57
2023/09/19 00:51:45;;;;;;;12.00;11.60;;;;;;;-141.02;100.00;38135.84;5118848;28;20643;-57
2023/09/19 00:54:17;;;;;;;12.13;11.73;;;;;;;-141.02;100.00;38155.00;5118802;27;20547;-57
2023/09/19 00:56:47;;;;;;;11.98;11.57;;;;;;;-141.02;100.00;38141.59;5119078;27;20272;-57
2023/09/19 00:59:14;;;;;;;12.05;11.65;;;;;;;-141.02;100.00;38137.75;5118712;27;20200;-57
2023/09/19 01:01:41;;;;;;;12.18;11.77;;;;;;;-141.02;100.00;38120.50;5118947;27;20193;-57
2023/09/19 01:04:09;;;;;;;12.60;12.20;;;;;;;-141.02;100.00;38250.88;5118537;27;20192;-58
2023/09/19 01:06:37;;;;;;;12.27;11.88;;;;;;;-141.02;100.00;38128.16;5118614;28;20236;-57
2023/09/19 01:09:05;;;;;;;12.30;11.90;;;;;;;-141.02;100.00;38101.34;5118743;27;20683;-58
2023/09/19 01:11:40;;;;;;;12.30;11.90;;;;;;;-141.02;100.00;38170.34;5118913;27;20196;-57
2023/09/19 01:14:20;;;;;;;12.10;11.70;;;;;;;-141.02;100.00;38133.91;5118822;27;20184;-58
2023/09/19 01:16:55;;;;;;;12.30;11.90;;;;;;;-141.02;100.00;38118.59;5118883;27;20655;-57
2023/09/19 01:19:52;;;;;;;12.35;11.95;;;;;;;-141.02;100.00;38112.84;5118791;27;20224;-57
2023/09/19 01:22:27;;;;;;;11.85;11.45;;;;;;;-141.02;100.00;38093.66;5114407;28;20197;-69
2023/09/19 01:25:20;;;;;;;11.70;11.40;;;;;;;-141.02;100.00;38078.31;5115517;28;20263;-58
2023/09/19 01:28:16;;;;;;;11.50;11.20;;;;;;;-141.02;100.00;38074.50;5115415;28;20234;-57
2023/09/19 01:30:47;;;;;;;11.30;11.00;;;;;;;-141.02;100.00;38063.00;5115467;28;20250;-57
2023/09/19 01:36:38;;;;;;;11.70;11.40;;;;;;;-141.02;100.00;38063.00;5115396;28;20272;-57
2023/09/19 01:39:10;;;;;;;11.75;11.45;;;;;;;-141.02;100.00;38022.72;5114960;28;20730;-57
2023/09/19 01:42:04;;;;;;;11.20;10.90;;;;;;;-141.02;100.00;38041.91;5114932;28;20182;-57
2023/09/19 01:44:41;;;;;;;11.00;10.70;;;;;;;-141.02;100.00;38057.25;5114840;28;20196;-57
2023/09/19 01:47:20;;;;;;;10.43;10.13;;;;;;;-141.02;100.00;38059.16;5114869;28;20245;-57
2023/09/19 01:49:57;;;;;;;11.10;10.80;;;;;;;-141.02;100.00;38013.16;5115192;28;20315;-57
2023/09/19 01:52:31;;;;;;;10.77;10.48;;;;;;;-141.02;100.00;38024.66;5114743;28;20189;-57
2023/09/19 01:55:06;;;;;;;10.80;10.50;;;;;;;-141.02;100.00;38032.31;5114944;28;20190;-57
2023/09/19 01:57:43;;;;;;;11.35;11.05;;;;;;;-141.02;100.00;38066.81;5114647;28;20181;-57
2023/09/19 02:00:13;;;;;;;10.73;10.43;;;;;;;-141.02;100.00;38063.00;5114885;28;20185;-57
2023/09/19 02:02:45;;;;;;;10.80;10.50;;;;;;;-141.02;100.00;38086.00;5114571;28;20193;-58
2023/09/19 02:05:13;;;;;;;10.30;10.00;;;;;;;-141.02;100.00;38087.91;5114527;28;20221;-57
2023/09/19 02:07:40;;;;;;;11.13;10.82;;;;;;;-141.02;100.00;38082.16;5114648;28;20305;-57
2023/09/19 02:10:10;;;;;;;10.63;10.32;;;;;;;-141.02;100.00;38097.50;5114098;28;20244;-57
2023/09/19 02:12:38;;;;;;;11.00;10.70;;;;;;;-141.02;100.00;38101.34;5114599;28;20651;-58
2023/09/19 02:15:07;;;;;;;10.65;10.35;;;;;;;-141.02;100.00;38109.00;5114585;28;20200;-58
2023/09/19 02:17:33;;;;;;;10.48;10.18;;;;;;;-141.02;100.00;38120.50;5114565;28;20197;-57
2023/09/19 02:20:02;;;;;;;10.57;10.27;;;;;;;-141.02;100.00;38139.69;5114473;28;20576;-57
2023/09/19 02:22:29;;;;;;;10.40;10.10;;;;;;;-141.02;100.00;38166.50;5114061;28;20193;-58
2023/09/19 02:24:59;;;;;;;10.40;10.10;;;;;;;-141.02;100.00;38158.84;5114089;28;20242;-66
2023/09/19 02:27:27;;;;;;;10.40;10.10;;;;;;;-141.02;100.00;38170.34;5114479;28;20185;-58
2023/09/19 02:29:54;;;;;;;10.48;10.18;;;;;;;-141.02;100.00;38162.69;5114218;28;20229;-57
2023/09/19 02:32:21;;;;;;;10.20;9.90;;;;;;;-141.02;100.00;38174.19;5113775;28;20196;-57
2023/09/19 02:34:48;;;;;;;9.95;9.65;;;;;;;-141.02;100.00;38220.19;5114187;28;20258;-57
2023/09/19 02:37:18;;;;;;;10.43;10.13;;;;;;;-141.02;100.00;38189.53;5113842;28;20200;-57
2023/09/19 02:39:46;;;;;;;10.00;9.70;;;;;;;-141.02;100.00;38225.94;5113795;28;20199;-57
2023/09/19 02:42:13;;;;;;;10.10;9.80;;;;;;;-141.02;100.00;38210.59;5113808;28;20199;-58
2023/09/19 02:44:40;;;;;;;10.20;9.90;;;;;;;-141.02;100.00;38273.88;5113688;28;20200;-57
2023/09/19 02:47:09;;;;;;;8.88;8.68;;;;;;;-141.02;100.00;38252.78;5113915;28;20572;-57
2023/09/19 02:49:36;;;;;;;9.68;9.38;;;;;;;-141.02;100.00;38283.47;5113812;28;20246;-57
2023/09/19 02:52:04;;;;;;;9.40;9.10;;;;;;;-141.02;100.00;38277.72;5113832;28;20233;-58
2023/09/19 02:54:33;;;;;;;9.70;9.40;;;;;;;-141.02;100.00;38306.47;5113804;27;20276;-57
2023/09/19 02:57:01;;;;;;;9.68;9.38;;;;;;;-141.02;100.00;38293.03;5113478;28;20200;-57
2023/09/19 02:59:29;;;;;;;9.80;9.50;;;;;;;-141.02;100.00;38293.03;5113419;27;20239;-57
2023/09/19 03:01:57;;;;;;;9.45;9.15;;;;;;;-141.02;100.00;38319.88;5113613;28;20220;-58
2023/09/19 03:04:26;;;;;;;9.60;9.30;;;;;;;-141.02;100.00;38329.47;5113326;28;20193;-58
2023/09/19 03:06:58;;;;;;;9.60;9.30;;;;;;;-141.02;100.00;38339.06;5113240;28;20201;-57
2023/09/19 03:09:25;;;;;;;9.57;9.27;;;;;;;-141.02;100.00;38379.31;5112212;28;20237;-57
2023/09/19 03:11:54;;;;;;;9.90;9.60;;;;;;;-141.02;100.00;38369.72;5113472;28;20275;-57
2023/09/19 03:14:23;;;;;;;9.75;9.45;;;;;;;-141.02;100.00;38400.41;5113123;28;20647;-57
2023/09/19 03:16:52;;;;;;;9.70;9.40;;;;;;;-141.02;100.00;38386.97;5113417;27;20227;-58
2023/09/19 03:19:20;;;;;;;9.68;9.38;;;;;;;-141.02;100.00;38408.06;5112992;28;20282;-57
2023/09/19 03:21:50;;;;;;;9.38;9.07;;;;;;;-141.02;100.00;38434.91;5112995;28;20193;-57
2023/09/19 03:24:17;;;;;;;9.25;9.05;;;;;;;-141.02;100.00;38429.16;5112929;27;20660;-57
2023/09/19 03:26:45;;;;;;;9.90;9.60;;;;;;;-141.02;100.00;38434.91;5113239;28;20547;-57
2023/09/19 03:29:13;;;;;;;9.20;9.00;;;;;;;-141.02;100.00;38480.94;5112747;28;20232;-57
2023/09/19 03:31:41;;;;;;;9.20;9.00;;;;;;;-141.02;100.00;38521.19;5113111;28;20200;-58
2023/09/19 03:34:08;;;;;;;9.32;9.05;;;;;;;-141.02;100.00;38486.69;5113149;28;20197;-57
2023/09/19 03:36:36;;;;;;;9.50;9.20;;;;;;;-141.02;100.00;38519.28;5113014;28;20243;-58
2023/09/19 03:39:04;;;;;;;9.70;9.40;;;;;;;-141.02;100.00;38519.28;5113013;28;20651;-69
2023/09/19 03:41:32;;;;;;;9.20;9.00;;;;;;;-141.02;100.00;38515.44;5112946;28;20296;-58
2023/09/19 03:44:00;;;;;;;9.15;8.95;;;;;;;-141.02;100.00;38565.28;5112403;28;20197;-57
2023/09/19 03:46:28;;;;;;;9.50;9.20;;;;;;;-141.02;100.00;38599.81;5112628;28;20193;-57
2023/09/19 03:48:56;;;;;;;9.38;9.07;;;;;;;-141.02;100.00;38632.41;5112455;28;20698;-57
2023/09/19 03:51:23;;;;;;;9.60;9.30;;;;;;;-141.02;100.00;38592.13;5112587;28;20232;-57
2023/09/19 03:53:50;;;;;;;10.30;10.00;;;;;;;-141.02;100.00;38643.91;5113067;28;20201;-58
2023/09/19 03:56:17;;;;;;;9.48;9.18;;;;;;;-141.02;100.00;38795.38;5112787;28;20567;-57
2023/09/19 03:58:44;;;;;;;9.57;9.27;;;;;;;-141.02;100.00;39144.38;5112715;28;20204;-57
2023/09/19 04:01:13;;;;;;;10.00;9.70;;;;;;;-141.02;100.00;39811.78;5112412;28;20201;-58
2023/09/19 04:03:47;;;;;;;9.80;9.50;;;;;;;-141.02;100.00;40421.75;5112719;28;20193;-57
2023/09/19 04:06:13;;;;;;;9.75;9.45;;;;;;;-141.02;100.00;40966.63;5112781;28;20192;-57
2023/09/19 04:08:40;;;;;;;10.38;10.07;;;;;;;-141.02;100.00;41281.31;5112307;28;20266;-58
2023/09/19 04:11:07;;;;;;;10.90;10.60;;;;;;;-141.02;100.00;41761.06;5112597;28;20275;-59
2023/09/19 04:13:35;;;;;;;10.57;10.27;;;;;;;-141.02;100.00;42394.41;5112643;28;20193;-57
2023/09/19 04:16:03;;;;;;;10.30;10.00;;;;;;;-141.02;100.00;42716.91;5112583;28;20223;-57
2023/09/19 04:18:32;;;;;;;9.90;9.60;;;;;;;-141.02;100.00;43070.16;5112654;28;20196;-58
2023/09/19 04:21:02;;;;;;;9.93;9.63;;;;;;;-141.02;100.00;43669.22;5112221;28;20200;-57
2023/09/19 04:23:29;;;;;;;9.65;9.35;;;;;;;-141.02;100.00;43922.69;5112534;28;20690;-58
2023/09/19 04:25:56;;;;;;;10.10;9.80;;;;;;;-141.02;100.00;44114.72;5112600;28;20188;-57
2023/09/19 04:28:24;;;;;;;10.70;10.40;;;;;;;-141.02;100.00;44101.28;5112492;28;20215;-58
2023/09/19 04:30:51;;;;;;;10.60;10.30;;;;;;;-141.02;100.00;43888.13;5112061;28;20315;-57
2023/09/19 04:33:18;;;;;;;10.35;10.05;;;;;;;-141.02;100.00;43619.28;5112118;28;20193;-57
2023/09/19 04:35:45;;;;;;;10.52;10.23;;;;;;;-141.02;100.00;43242.94;5112099;28;20742;-66
2023/09/19 04:38:15;;;;;;;10.95;10.65;;;;;;;-141.02;100.00;42882.00;5112074;28;20721;-57
2023/09/19 04:40:42;;;;;;;11.13;10.82;;;;;;;-141.02;100.00;42582.53;5112016;28;20204;-58
2023/09/19 04:43:09;;;;;;;11.70;11.30;;;;;;;-141.02;100.00;42436.66;5112383;28;20196;-58
2023/09/19 04:45:36;;;;;;;11.60;11.30;;;;;;;-141.02;100.00;42260.06;5112340;28;20272;-58
2023/09/19 04:48:03;;;;;;;11.88;11.48;;;;;;;-141.02;100.00;42181.38;5111992;28;20200;-58
2023/09/19 04:50:31;;;;;;;12.15;11.75;;;;;;;-141.02;100.00;42133.38;5112161;28;20235;-58
2023/09/19 04:52:58;;;;;;;11.98;11.57;;;;;;;-141.02;100.00;42002.88;5111925;28;20617;-58
2023/09/19 04:55:26;;;;;;;12.57;12.18;;;;;;;-141.02;100.00;41914.59;5112279;28;20291;-58
2023/09/19 04:57:55;;;;;;;13.23;12.82;;;;;;;-141.02;100.00;41966.41;5116097;28;20272;-58
2023/09/19 05:00:24;;;;;;;13.60;13.20;;;;;;;-141.02;100.00;41851.25;5116147;28;20197;-58
2023/09/19 05:02:52;;;;;;;13.15;12.75;;;;;;;-141.02;100.00;41993.28;5115642;28;20616;-58
2023/09/19 05:05:19;;;;;;;13.02;12.63;;;;;;;-141.02;100.00;41807.09;5115723;28;20197;-57
2023/09/19 05:07:47;;;;;;;12.98;12.57;;;;;;;-141.02;100.00;41814.78;5115921;28;20193;-58
2023/09/19 05:10:14;;;;;;;12.38;11.98;;;;;;;-141.02;100.00;41778.31;5115361;28;20244;-58
2023/09/19 05:12:45;;;;;;;13.35;12.95;;;;;;;-141.02;100.00;41709.22;5115825;28;20193;-59
2023/09/19 05:15:12;;;;;;;12.50;12.10;;;;;;;-141.02;100.00;41716.91;5115807;28;20251;-58
2023/09/19 05:17:39;;;;;;;13.38;12.98;;;;;;;-141.02;100.00;41837.81;5115498;28;20209;-57
2023/09/19 05:20:24;;;;;;;13.68;13.27;;;;;;;-141.02;100.00;41678.53;5115374;28;20193;-57
2023/09/19 05:22:58;;;;;;;13.50;13.10;;;;;;;-141.02;100.00;41713.06;5115694;28;20268;-57
2023/09/19 05:25:25;;;;;;;13.60;13.20;;;;;;;-141.02;100.00;41588.34;5115260;28;20193;-58
2023/09/19 05:27:56;;;;;;;13.43;13.02;;;;;;;-141.02;100.00;41711.16;5115282;28;20197;-58
2023/09/19 05:30:23;;;;;;;13.75;13.35;;;;;;;-141.02;100.00;41874.28;5115432;28;20295;-69
2023/09/19 05:32:51;;;;;;;13.88;13.48;;;;;;;-141.02;100.00;41661.25;5115439;28;20283;-57
2023/09/19 05:35:18;;;;;;;14.65;14.15;;;;;;;-141.02;100.00;41480.88;5115082;27;20641;-58
2023/09/19 05:37:45;;;;;;;14.50;14.00;;;;;;;-141.02;100.00;41369.56;5115644;28;20189;-62
2023/09/19 05:40:12;;;;;;;14.10;13.60;;;;;;;-141.02;100.00;41354.22;5115001;28;20285;-57
2023/09/19 05:42:39;;;;;;;14.05;13.55;;;;;;;-141.02;100.00;41411.78;5115282;28;20326;-57
2023/09/19 05:45:12;;;;;;;14.57;14.07;;;;;;;-141.02;100.00;41296.66;5114989;27;20643;-57
2023/09/19 05:47:40;;;;;;;14.50;14.00;;;;;;;-141.02;100.00;41264.03;5115244;28;20185;-58
2023/09/19 05:50:09;;;;;;;14.45;13.95;;;;;;;-141.02;100.00;41292.81;5114794;28;20268;-57
2023/09/19 05:52:37;;;;;;;14.65;14.15;;;;;;;-141.02;100.00;41189.19;5114756;28;20280;-58
2023/09/19 05:55:05;;;;;;;15.57;14.98;;;;;;;-141.02;100.00;41164.25;5114779;28;20200;-58
2023/09/19 05:57:32;;;;;;;14.98;14.38;;;;;;;-141.02;100.00;41196.88;5115000;28;20193;-58
2023/09/19 05:59:59;;;;;;;15.13;14.60;;;;;;;-141.02;100.00;41212.22;5114976;28;20223;-57
2023/09/19 06:02:29;;;;;;;14.68;14.18;;;;;;;-141.02;100.00;41241.00;5114885;28;20272;-57
2023/09/19 06:04:57;;;;;;;14.73;14.23;;;;;;;-141.02;100.00;41260.19;5114874;28;20612;-58
2023/09/19 06:07:25;;;;;;;14.48;13.98;;;;;;;-141.02;100.00;41400.28;5114286;28;20275;-58
2023/09/19 06:09:54;;;;;;;14.45;13.95;;;;;;;-141.02;100.00;41455.91;5114367;28;20317;-58
2023/09/19 06:12:21;;;;;;;14.50;14.00;;;;;;;-141.02;100.00;41406.03;5114708;28;20588;-57
2023/09/19 06:14:49;;;;;;;14.57;14.07;;;;;;;-141.02;100.00;41381.09;5114421;28;20228;-58
2023/09/19 06:17:17;;;;;;;14.50;14.00;;;;;;;-141.02;100.00;41549.94;5114282;28;20602;-58
2023/09/19 06:19:47;;;;;;;14.77;14.18;;;;;;;-141.02;100.00;41404.09;5114592;28;20197;-58
2023/09/19 06:22:17;;;;;;;15.10;14.50;;;;;;;-141.02;100.00;41329.28;5114497;28;20182;-58
2023/09/19 06:24:44;;;;;;;16.00;15.30;;;;;;;-141.02;100.00;41041.44;5114207;28;20192;-58
2023/09/19 06:27:11;;;;;;;15.85;15.15;;;;;;;-141.02;100.00;40928.25;5114423;28;20262;-58
2023/09/19 06:29:38;;;;;;;15.88;15.18;;;;;;;-141.02;100.00;40868.78;5113936;28;20770;-59
2023/09/19 06:32:08;;;;;;;16.35;15.65;;;;;;;-141.02;100.00;40751.72;5114291;28;20272;-58
2023/09/19 06:34:36;;;;;;;17.15;16.45;;;;;;;-141.02;100.00;40699.94;5113883;28;20197;-58
2023/09/19 06:37:05;;;;;;;17.02;16.33;;;;;;;-141.02;100.00;40740.22;5113963;28;20655;-58
2023/09/19 06:39:32;;;;;;;16.23;15.63;;;;;;;-141.02;100.00;40751.72;5113804;28;20681;-58
2023/09/19 06:42:01;;;;;;;17.15;16.40;;;;;;;-141.02;100.00;40605.94;5114058;28;20279;-58
2023/09/19 06:44:29;;;;;;;16.38;15.68;;;;;;;-141.02;100.00;40776.69;5113580;28;20574;-58
2023/09/19 06:46:56;;;;;;;17.55;16.75;;;;;;;-141.02;100.00;40604.00;5113732;28;20647;-58
2023/09/19 06:49:23;;;;;;;17.42;16.63;;;;;;;-141.02;100.00;40694.19;5113854;28;20204;-57
2023/09/19 06:51:50;;;;;;;17.52;16.73;;;;;;;-141.02;100.00;40644.28;5113599;28;20193;-58
2023/09/19 06:54:19;;;;;;;17.77;16.98;;;;;;;-141.02;100.00;40675.00;5113561;28;20284;-57
2023/09/19 06:56:46;;;;;;;16.95;16.25;;;;;;;-141.02;100.00;40621.28;5113739;28;20208;-58
2023/09/19 06:59:14;;;;;;;16.45;15.75;;;;;;;-141.02;100.00;40602.09;5113772;28;20276;-57
2023/09/19 07:01:44;;;;;;;17.00;16.23;;;;;;;-141.02;100.00;40598.25;5113375;28;20255;-58
2023/09/19 07:04:12;;;;;;;17.60;16.80;;;;;;;-141.02;100.00;40467.81;5113747;28;20197;-68
2023/09/19 07:06:40;;;;;;;17.75;16.95;;;;;;;-141.02;100.00;40467.81;5113297;28;20197;-58
2023/09/19 07:09:08;;;;;;;17.55;16.75;;;;;;;-141.02;100.00;40525.34;5113255;28;20615;-58
2023/09/19 07:11:36;;;;;;;17.90;17.10;;;;;;;-141.02;100.00;40490.81;5113183;28;20264;-58
2023/09/19 07:14:05;;;;;;;17.60;16.80;;;;;;;-141.02;100.00;40561.81;5113466;28;20203;-58
2023/09/19 07:16:32;;;;;;;17.73;16.92;;;;;;;-141.02;100.00;40519.59;5113133;28;20201;-58
2023/09/19 07:18:59;;;;;;;17.30;16.50;;;;;;;-141.02;100.00;40513.84;5112301;28;20197;-58
2023/09/19 07:21:26;;;;;;;18.00;17.20;;;;;;;-141.02;100.00;40557.97;5113070;28;20288;-58
2023/09/19 07:23:53;;;;;;;18.30;17.40;;;;;;;-141.02;100.00;40544.53;5113313;28;20288;-58
2023/09/19 07:26:20;;;;;;;18.40;17.50;;;;;;;-141.02;100.00;40498.50;5112931;28;20687;-58
2023/09/19 07:28:49;;;;;;;18.63;17.73;;;;;;;-141.02;100.00;40463.97;5112966;28;20236;-58
2023/09/19 07:31:16;;;;;;;17.48;16.67;;;;;;;-141.02;100.00;40494.66;5112790;28;20778;-58
2023/09/19 07:33:43;;;;;;;17.60;16.80;;;;;;;-141.02;99.61;40465.88;5113145;28;20683;-57
2023/09/19 07:36:13;;;;;;;17.70;16.80;;;;;;;-141.02;99.98;40460.13;5113108;28;20200;-58
2023/09/19 07:38:40;;;;;;;18.33;17.42;;;;;;;-141.02;99.66;40460.13;5112779;28;20607;-58
2023/09/19 07:41:09;;;;;;;18.45;17.55;;;;;;;-141.02;99.96;40481.22;5112774;28;20283;-58
2023/09/19 07:43:37;;;;;;;18.45;17.55;;;;;;;-141.02;99.28;40513.84;5112978;28;20276;-58
2023/09/19 07:46:08;;;;;;;18.77;17.88;;;;;;;-141.02;97.60;40590.59;5112996;28;20200;-58
2023/09/19 07:48:37;;;;;;;18.70;17.80;;;;;;;-141.02;97.14;40701.84;5112622;28;20189;-58
2023/09/19 07:51:04;;;;;;;19.25;18.25;;;;;;;-141.02;95.62;40728.72;5112866;28;20224;-58
2023/09/19 07:53:34;;;;;;;19.10;18.17;;;;;;;-141.02;93.91;40719.13;5112845;28;20253;-58
2023/09/19 07:56:06;;;;;;;19.42;18.42;;;;;;;-141.02;91.74;40717.19;5112601;28;20200;-58
2023/09/19 07:58:35;;;;;;;19.52;18.52;;;;;;;-141.02;90.64;40793.94;5112534;28;20208;-58
2023/09/19 08:01:07;;;;;;;19.23;18.23;;;;;;;-141.02;89.94;40778.59;5112762;28;20228;-58
2023/09/19 08:03:34;;;;;;;19.25;18.25;;;;;;;-141.02;89.92;40840.00;5112403;28;20714;-58
2023/09/19 08:06:04;;;;;;;19.45;18.45;;;;;;;-141.02;89.60;40849.59;5112690;28;20197;-68
2023/09/19 08:08:31;;;;;;;19.40;18.40;;;;;;;-141.02;85.16;40874.53;5112429;28;20305;-58
2023/09/19 08:10:58;;;;;;;19.23;18.23;;;;;;;-141.02;85.83;40840.00;5112565;28;20339;-58
2023/09/19 08:13:25;;;;;;;19.45;18.45;;;;;;;-141.02;84.72;40830.41;5112413;28;20189;-58
2023/09/19 08:15:53;;;;;;;19.55;18.55;;;;;;;-141.02;84.69;40838.06;5112264;28;20691;-62
2023/09/19 08:18:22;;;;;;;19.67;18.67;;;;;;;-141.02;84.72;40757.50;5112600;28;20574;-58
2023/09/19 08:20:53;;;;;;;19.55;18.55;;;;;;;-141.02;84.67;40684.59;5112275;28;20313;-58
2023/09/19 08:23:21;;;;;;;19.88;18.77;;;;;;;-141.02;86.05;40686.50;5112513;28;20272;-58
2023/09/19 08:25:48;;;;;;;19.70;18.70;;;;;;;-141.02;86.11;40709.53;5112524;28;20193;-58
2023/09/19 08:28:18;;;;;;;19.48;18.48;;;;;;;-141.02;85.59;40830.41;5112182;28;20572;-58
2023/09/19 08:30:46;;;;;;;19.38;18.38;;;;;;;-141.02;86.95;40826.56;5114726;28;20217;-69
2023/09/19 08:33:15;;;;;;;19.17;18.17;;;;;;;-141.02;83.56;40721.03;5116306;28;20280;-58
2023/09/19 08:35:45;;;;;;;19.25;18.25;;;;;;;-141.02;82.87;40719.13;5116253;28;20192;-68
2023/09/19 08:38:13;;;;;;;18.83;17.83;;;;;;;-141.02;83.34;40930.16;5116297;28;20661;-58
2023/09/19 08:40:42;;;;;;;19.23;18.23;;;;;;;-141.02;81.09;41008.84;5116497;28;20193;-58
2023/09/19 08:43:09;;;;;;;19.08;18.08;;;;;;;-141.02;79.62;41093.25;5116509;28;20197;-60
2023/09/19 08:45:37;;;;;;;19.10;18.10;;;;;;;-141.02;79.43;41258.28;5116355;28;20193;-58
2023/09/19 08:48:23;;;;;;;19.08;18.08;;;;;;;-141.02;76.68;41047.22;5116061;28;20200;-58
2023/09/19 08:50:55;;;;;;;19.02;18.02;;;;;;;-141.02;76.30;41085.59;5115968;28;20779;-58
2023/09/19 08:53:33;;;;;;;19.10;18.10;;;;;;;-141.02;75.74;41300.50;5115984;28;20233;-58
2023/09/19 08:56:01;;;;;;;19.05;18.05;;;;;;;-141.02;75.82;41507.72;5116215;28;20189;-58
2023/09/19 08:58:35;;;;;;;18.65;17.65;;;;;;;-141.02;73.45;41546.13;5116356;28;20205;-59
2023/09/19 09:01:02;;;;;;;19.45;18.35;;;;;;;-141.02;72.55;41359.97;5115859;28;20663;-70
2023/09/19 09:03:35;;;;;;;19.30;18.30;;;;;;;-141.02;70.96;41423.28;5115765;28;20279;-69
2023/09/19 09:06:04;;;;;;;19.08;18.08;;;;;;;-141.02;70.08;41118.19;5115709;28;20354;-58
2023/09/19 09:08:32;;;;;;;18.65;17.65;;;;;;;-141.02;70.88;40943.59;5115738;28;20799;-69
2023/09/19 09:11:01;;;;;;;18.85;17.85;;;;;;;-141.02;70.41;41062.56;5115835;28;20218;-58
2023/09/19 09:13:28;;;;;;;18.77;17.77;;;;;;;-141.02;72.68;41074.06;5115943;28;20196;-58
2023/09/19 09:15:55;;;;;;;18.83;17.83;;;;;;;-141.02;72.29;41116.28;5115495;28;20645;-58
2023/09/19 09:18:22;;;;;;;18.88;17.88;;;;;;;-141.02;71.89;41150.81;5115777;28;20567;-58
2023/09/19 09:20:49;;;;;;;19.10;18.10;;;;;;;-141.02;72.13;41158.50;5115406;28;20197;-59
2023/09/19 09:23:17;;;;;;;19.05;18.05;;;;;;;-141.02;71.23;41150.81;5115644;28;20250;-58
2023/09/19 09:25:50;;;;;;;19.63;18.52;;;;;;;-141.02;72.77;41089.41;5115663;28;20229;-58
2023/09/19 09:28:21;;;;;;;19.75;18.65;;;;;;;-141.02;72.97;41074.06;5115191;28;20201;-58
2023/09/19 09:30:49;;;;;;;20.15;19.05;;;;;;;-141.02;72.98;41097.09;5115248;28;20213;-59
2023/09/19 09:33:16;;;;;;;18.58;17.58;;;;;;;-141.02;72.69;41131.63;5115463;28;20270;-58
2023/09/19 09:35:52;;;;;;;19.13;18.02;;;;;;;-141.02;72.93;41150.81;5115184;28;20193;-68
2023/09/19 09:38:25;;;;;;;18.48;17.48;;;;;;;-141.02;72.69;41317.75;5115664;28;20585;-58
2023/09/19 09:40:59;;;;;;;18.85;17.85;;;;;;;-141.02;70.28;41356.13;5115062;28;20234;-58
2023/09/19 09:43:30;;;;;;;18.85;17.85;;;;;;;-141.02;70.10;41265.94;5114638;28;20196;-58
2023/09/19 09:46:58;;;;;;;18.85;17.85;;;;;;;-141.02;69.41;41265.94;5115317;28;20200;-68
2023/09/19 09:49:26;;;;;;;18.85;17.80;;;;;;;-141.02;71.13;41131.63;5114804;28;20193;-58
2023/09/19 09:52:05;;;;;;;18.92;17.92;;;;;;;-141.02;72.23;41099.00;5114790;28;20309;-70
2023/09/19 09:54:36;;;;;;;18.65;17.65;;;;;;;-141.02;71.76;41058.72;5115086;28;20193;-58
2023/09/19 09:57:13;;;;;;;18.95;17.88;;;;;;;-141.02;70.51;41066.41;5114825;28;20196;-69
2023/09/19 09:59:52;;;;;;;18.63;17.63;;;;;;;-141.02;72.56;41112.44;5115016;28;20196;-58
2023/09/19 10:02:25;;;;;;;18.42;17.42;;;;;;;-141.02;70.92;41166.16;5114990;28;20246;-69
2023/09/19 10:04:58;;;;;;;18.10;17.20;;;;;;;-141.02;71.87;41114.38;5114901;28;20185;-58
2023/09/19 10:07:32;;;;;;;18.58;17.58;;;;;;;-141.02;70.18;41143.16;5114613;28;20186;-58
2023/09/19 10:10:11;;;;;;;18.55;17.55;;;;;;;-141.02;70.03;41288.97;5114290;28;20208;-59
2023/09/19 10:12:47;;;;;;;18.70;17.67;;;;;;;-141.02;68.86;41244.84;5114678;28;20223;-58
2023/09/19 10:15:16;;;;;;;18.45;17.45;;;;;;;-141.02;69.29;41308.16;5114713;28;20185;-58
2023/09/19 10:17:45;;;;;;;18.73;17.63;;;;;;;-141.02;70.18;41208.38;5114320;28;20258;-59
2023/09/19 10:20:33;;;;;;;18.88;17.88;;;;;;;-141.02;69.62;41265.94;5114261;28;20196;-58
2023/09/19 10:23:10;;;;;;;19.55;18.45;;;;;;;-141.02;67.26;41302.41;5114276;28;20210;-58
2023/09/19 10:25:40;;;;;;;19.30;18.30;;;;;;;-141.02;67.41;41388.75;5114261;27;20185;-58
2023/09/19 10:28:10;;;;;;;18.70;17.80;;;;;;;-141.02;66.33;41427.13;5114048;28;20199;-58
2023/09/19 10:30:44;;;;;;;18.52;17.52;;;;;;;-141.02;66.62;41446.31;5114008;27;20197;-58
2023/09/19 10:33:11;;;;;;;18.50;17.50;;;;;;;-141.02;65.90;41413.69;5114051;28;20258;-58
2023/09/19 10:35:41;;;;;;;18.65;17.65;;;;;;;-141.02;66.17;41430.97;5114268;28;20269;-58
2023/09/19 10:38:11;;;;;;;19.15;18.05;;;;;;;-141.02;65.59;41413.69;5114228;28;20193;-58
2023/09/19 10:40:43;;;;;;;19.02;17.92;;;;;;;-141.02;66.58;41503.91;5113824;28;20186;-58
2023/09/19 10:43:14;;;;;;;18.75;17.75;;;;;;;-141.02;66.34;41578.75;5114171;28;20190;-66
2023/09/19 10:45:44;;;;;;;18.73;17.73;;;;;;;-141.02;65.84;41885.78;5113773;28;20712;-59
2023/09/19 10:48:12;;;;;;;18.63;17.63;;;;;;;-141.02;64.62;41565.31;5113725;28;20292;-58
2023/09/19 10:50:48;;;;;;;19.10;18.10;;;;;;;-141.02;65.62;41438.66;5113522;28;20250;-58
2023/09/19 10:53:17;;;;;;;19.35;18.30;;;;;;;-141.02;66.13;41517.31;5113962;28;20188;-58
2023/09/19 10:55:55;;;;;;;18.95;17.95;;;;;;;-141.02;65.13;41565.31;5113807;28;20262;-58
2023/09/19 10:58:29;;;;;;;19.35;18.35;;;;;;;-141.02;64.97;41734.19;5113569;28;20271;-58
2023/09/19 11:01:02;;;;;;;18.67;17.67;;;;;;;-141.02;65.29;41766.81;5113435;28;20705;-58
2023/09/19 11:03:31;;;;;;;19.27;18.27;;;;;;;-141.02;64.45;41569.13;5113773;28;20700;-69
2023/09/19 11:06:06;;;;;;;19.20;18.20;;;;;;;-141.02;65.11;41653.59;5114050;28;20225;-58
2023/09/19 11:08:58;;;;;;;19.15;18.15;;;;;;;-141.02;63.52;41645.91;5113429;28;20232;-58
2023/09/19 11:11:50;;;;;;;19.00;17.90;;;;;;;-141.02;64.33;41943.38;5113255;28;20299;-58
2023/09/19 11:14:44;;;;;;;18.80;17.80;;;;;;;-141.02;65.20;41895.38;5113265;28;20185;-58
2023/09/19 11:17:37;;;;;;;18.92;17.92;;;;;;;-141.02;62.66;42333.00;5113477;28;20223;-58
2023/09/19 11:20:41;;;;;;;18.88;17.88;;;;;;;-141.02;63.40;42022.06;5076702;28;20204;-58